sensor_id;sensor_type;location;lat;lon;timestamp;P1;durP1;ratioP1;P2;durP2;ratioP2
1004;SDS011;491;53.480;10.174;2023-09-12T00:00:20;17.87;;;16.07;;
1004;SDS011;491;53.480;10.174;2023-09-12T00:02:48;23.53;;;16.83;;
1004;SDS011;491;53.480;10.174;2023-09-12T00:05:14;20.87;;;18.87;;
1004;SDS011;491;53.480;10.174;2023-09-12T00:07:40;22.53;;;20.27;;
1004;SDS011;491;53.480;10.174;2023-09-12T00:10:06;20.50;;;18.33;;
1004;SDS011;491;53.480;10.174;2023-09-12T00:12:31;22.13;;;19.90;;
1004;SDS011;491;53.480;10.174;2023-09-12T00:14:57;29.13;;;22.50;;
1004;SDS011;491;53.480;10.174;2023-09-12T00:17:23;25.63;;;23.20;;
1004;SDS011;491;53.480;10.174;2023-09-12T00:19:51;32.33;;;28.53;;
1004;SDS011;491;53.480;10.174;2023-09-12T00:22:17;31.37;;;28.27;;
1004;SDS011;491;53.480;10.174;2023-09-12T00:24:43;35.03;;;31.23;;
1004;SDS011;491;53.480;10.174;2023-09-12T00:27:09;38.70;;;34.43;;
1004;SDS011;491;53.480;10.174;2023-09-12T00:29:35;39.07;;;34.20;;
1004;SDS011;491;53.480;10.174;2023-09-12T00:32:01;39.40;;;35.30;;
1004;SDS011;491;53.480;10.174;2023-09-12T00:34:27;40.93;;;36.53;;
1004;SDS011;491;53.480;10.174;2023-09-12T00:36:53;43.00;;;38.37;;
1004;SDS011;491;53.480;10.174;2023-09-12T00:39:19;43.13;;;38.50;;
1004;SDS011;491;53.480;10.174;2023-09-12T00:41:45;47.13;;;38.03;;
1004;SDS011;491;53.480;10.174;2023-09-12T00:44:10;41.70;;;37.17;;
1004;SDS011;491;53.480;10.174;2023-09-12T00:46:36;45.03;;;38.47;;
1004;SDS011;491;53.480;10.174;2023-09-12T00:49:03;44.90;;;40.00;;
1004;SDS011;491;53.480;10.174;2023-09-12T00:51:29;40.73;;;36.47;;
1004;SDS011;491;53.480;10.174;2023-09-12T00:53:59;47.27;;;38.60;;
1004;SDS011;491;53.480;10.174;2023-09-12T00:56:25;44.50;;;37.53;;
1004;SDS011;491;53.480;10.174;2023-09-12T00:58:51;43.00;;;36.03;;
1004;SDS011;491;53.480;10.174;2023-09-12T01:01:18;44.47;;;35.13;;
1004;SDS011;491;53.480;10.174;2023-09-12T01:03:44;41.87;;;35.83;;
1004;SDS011;491;53.480;10.174;2023-09-12T01:06:10;43.93;;;35.80;;
1004;SDS011;491;53.480;10.174;2023-09-12T01:08:36;37.47;;;33.40;;
1004;SDS011;491;53.480;10.174;2023-09-12T01:11:03;41.53;;;35.30;;
1004;SDS011;491;53.480;10.174;2023-09-12T01:13:29;36.53;;;32.63;;
1004;SDS011;491;53.480;10.174;2023-09-12T01:15:55;44.53;;;35.10;;
1004;SDS011;491;53.480;10.174;2023-09-12T01:18:21;35.60;;;31.17;;
1004;SDS011;491;53.480;10.174;2023-09-12T01:20:54;38.10;;;31.47;;
1004;SDS011;491;53.480;10.174;2023-09-12T01:23:37;39.10;;;33.57;;
1004;SDS011;491;53.480;10.174;2023-09-12T01:26:23;36.00;;;31.60;;
1004;SDS011;491;53.480;10.174;2023-09-12T01:28:55;37.80;;;31.90;;
1004;SDS011;491;53.480;10.174;2023-09-12T01:31:23;37.37;;;33.47;;
1004;SDS011;491;53.480;10.174;2023-09-12T01:33:49;39.53;;;33.90;;
1004;SDS011;491;53.480;10.174;2023-09-12T01:36:15;40.23;;;32.50;;
1004;SDS011;491;53.480;10.174;2023-09-12T01:38:41;37.80;;;31.03;;
1004;SDS011;491;53.480;10.174;2023-09-12T01:41:07;39.43;;;32.33;;
1004;SDS011;491;53.480;10.174;2023-09-12T01:43:33;36.80;;;32.27;;
1004;SDS011;491;53.480;10.174;2023-09-12T01:46:00;35.90;;;31.93;;
1004;SDS011;491;53.480;10.174;2023-09-12T01:48:26;39.93;;;35.30;;
1004;SDS011;491;53.480;10.174;2023-09-12T01:50:58;36.73;;;31.10;;
1004;SDS011;491;53.480;10.174;2023-09-12T01:53:24;42.70;;;32.20;;
1004;SDS011;491;53.480;10.174;2023-09-12T01:55:50;39.87;;;34.80;;
1004;SDS011;491;53.480;10.174;2023-09-12T01:58:16;39.83;;;33.60;;
1004;SDS011;491;53.480;10.174;2023-09-12T02:00:42;40.00;;;34.10;;
1004;SDS011;491;53.480;10.174;2023-09-12T02:03:08;45.47;;;36.20;;
1004;SDS011;491;53.480;10.174;2023-09-12T02:05:34;38.93;;;31.90;;
1004;SDS011;491;53.480;10.174;2023-09-12T02:08:00;38.50;;;33.20;;
1004;SDS011;491;53.480;10.174;2023-09-12T02:10:26;37.40;;;32.10;;
1004;SDS011;491;53.480;10.174;2023-09-12T02:12:52;40.87;;;33.30;;
1004;SDS011;491;53.480;10.174;2023-09-12T02:15:18;36.23;;;32.33;;
1004;SDS011;491;53.480;10.174;2023-09-12T02:17:44;39.83;;;32.17;;
1004;SDS011;491;53.480;10.174;2023-09-12T02:20:10;38.33;;;34.20;;
1004;SDS011;491;53.480;10.174;2023-09-12T02:22:36;39.40;;;35.20;;
1004;SDS011;491;53.480;10.174;2023-09-12T02:25:03;40.20;;;32.23;;
1004;SDS011;491;53.480;10.174;2023-09-12T02:27:29;42.83;;;36.23;;
1004;SDS011;491;53.480;10.174;2023-09-12T02:29:55;43.93;;;36.30;;
1004;SDS011;491;53.480;10.174;2023-09-12T02:32:21;41.53;;;33.60;;
1004;SDS011;491;53.480;10.174;2023-09-12T02:34:47;44.00;;;36.23;;
1004;SDS011;491;53.480;10.174;2023-09-12T02:37:13;38.50;;;34.50;;
1004;SDS011;491;53.480;10.174;2023-09-12T02:39:40;43.03;;;38.53;;
1004;SDS011;491;53.480;10.174;2023-09-12T02:42:06;46.83;;;41.77;;
1004;SDS011;491;53.480;10.174;2023-09-12T02:44:32;49.00;;;41.77;;
1004;SDS011;491;53.480;10.174;2023-09-12T02:46:58;50.87;;;40.30;;
1004;SDS011;491;53.480;10.174;2023-09-12T02:49:24;50.50;;;43.07;;
1004;SDS011;491;53.480;10.174;2023-09-12T02:51:50;46.70;;;41.80;;
1004;SDS011;491;53.480;10.174;2023-09-12T02:54:15;50.10;;;43.87;;
1004;SDS011;491;53.480;10.174;2023-09-12T02:56:41;46.70;;;41.70;;
1004;SDS011;491;53.480;10.174;2023-09-12T02:59:07;53.17;;;44.27;;
1004;SDS011;491;53.480;10.174;2023-09-12T03:01:33;47.40;;;40.60;;
1004;SDS011;491;53.480;10.174;2023-09-12T03:03:59;46.47;;;41.40;;
1004;SDS011;491;53.480;10.174;2023-09-12T03:06:25;46.80;;;41.60;;
1004;SDS011;491;53.480;10.174;2023-09-12T03:08:51;47.67;;;38.97;;
1004;SDS011;491;53.480;10.174;2023-09-12T03:11:17;54.17;;;44.17;;
1004;SDS011;491;53.480;10.174;2023-09-12T03:13:43;48.90;;;42.27;;
1004;SDS011;491;53.480;10.174;2023-09-12T03:16:09;48.37;;;43.10;;
1004;SDS011;491;53.480;10.174;2023-09-12T03:18:35;47.47;;;42.13;;
1004;SDS011;491;53.480;10.174;2023-09-12T03:21:01;49.73;;;41.33;;
1004;SDS011;491;53.480;10.174;2023-09-12T03:23:27;47.00;;;41.93;;
1004;SDS011;491;53.480;10.174;2023-09-12T03:25:53;53.17;;;42.10;;
1004;SDS011;491;53.480;10.174;2023-09-12T03:28:19;48.57;;;41.53;;
1004;SDS011;491;53.480;10.174;2023-09-12T03:30:45;48.70;;;41.73;;
1004;SDS011;491;53.480;10.174;2023-09-12T03:33:11;52.30;;;41.50;;
1004;SDS011;491;53.480;10.174;2023-09-12T03:35:37;44.47;;;39.73;;
1004;SDS011;491;53.480;10.174;2023-09-12T03:38:03;45.07;;;40.20;;
1004;SDS011;491;53.480;10.174;2023-09-12T03:40:29;40.97;;;36.43;;
1004;SDS011;491;53.480;10.174;2023-09-12T03:42:55;53.47;;;37.70;;
1004;SDS011;491;53.480;10.174;2023-09-12T03:45:21;44.97;;;39.40;;
1004;SDS011;491;53.480;10.174;2023-09-12T03:47:47;41.60;;;37.07;;
1004;SDS011;491;53.480;10.174;2023-09-12T03:50:13;41.80;;;37.27;;
1004;SDS011;491;53.480;10.174;2023-09-12T03:52:39;40.37;;;35.30;;
1004;SDS011;491;53.480;10.174;2023-09-12T03:55:05;40.90;;;36.17;;
1004;SDS011;491;53.480;10.174;2023-09-12T03:57:31;43.17;;;38.40;;
1004;SDS011;491;53.480;10.174;2023-09-12T03:59:57;45.97;;;38.30;;
1004;SDS011;491;53.480;10.174;2023-09-12T04:02:23;44.03;;;37.70;;
1004;SDS011;491;53.480;10.174;2023-09-12T04:04:49;45.70;;;35.80;;
1004;SDS011;491;53.480;10.174;2023-09-12T04:07:16;41.83;;;35.40;;
1004;SDS011;491;53.480;10.174;2023-09-12T04:09:43;41.50;;;36.97;;
1004;SDS011;491;53.480;10.174;2023-09-12T04:12:08;39.13;;;34.30;;
1004;SDS011;491;53.480;10.174;2023-09-12T04:14:35;45.43;;;37.90;;
1004;SDS011;491;53.480;10.174;2023-09-12T04:17:01;42.50;;;36.93;;
1004;SDS011;491;53.480;10.174;2023-09-12T04:19:27;47.67;;;38.53;;
1004;SDS011;491;53.480;10.174;2023-09-12T04:21:53;43.73;;;36.27;;
1004;SDS011;491;53.480;10.174;2023-09-12T04:24:19;41.07;;;36.70;;
1004;SDS011;491;53.480;10.174;2023-09-12T04:26:45;43.80;;;37.90;;
1004;SDS011;491;53.480;10.174;2023-09-12T04:29:11;42.00;;;36.60;;
1004;SDS011;491;53.480;10.174;2023-09-12T04:31:37;41.97;;;35.70;;
1004;SDS011;491;53.480;10.174;2023-09-12T04:34:03;38.67;;;33.60;;
1004;SDS011;491;53.480;10.174;2023-09-12T04:36:30;37.17;;;33.30;;
1004;SDS011;491;53.480;10.174;2023-09-12T04:38:56;42.90;;;37.23;;
1004;SDS011;491;53.480;10.174;2023-09-12T04:41:22;46.97;;;37.73;;
1004;SDS011;491;53.480;10.174;2023-09-12T04:43:48;44.23;;;36.53;;
1004;SDS011;491;53.480;10.174;2023-09-12T04:46:14;39.70;;;34.60;;
1004;SDS011;491;53.480;10.174;2023-09-12T04:48:40;39.23;;;35.00;;
1004;SDS011;491;53.480;10.174;2023-09-12T04:51:06;47.73;;;39.17;;
1004;SDS011;491;53.480;10.174;2023-09-12T04:53:31;43.03;;;38.53;;
1004;SDS011;491;53.480;10.174;2023-09-12T04:56:01;41.57;;;35.57;;
1004;SDS011;491;53.480;10.174;2023-09-12T04:58:31;40.63;;;36.20;;
1004;SDS011;491;53.480;10.174;2023-09-12T05:00:57;45.40;;;37.87;;
1004;SDS011;491;53.480;10.174;2023-09-12T05:03:23;48.77;;;38.60;;
1004;SDS011;491;53.480;10.174;2023-09-12T05:05:49;49.97;;;41.00;;
1004;SDS011;491;53.480;10.174;2023-09-12T05:08:15;46.53;;;41.53;;
1004;SDS011;491;53.480;10.174;2023-09-12T05:10:43;49.60;;;42.77;;
1004;SDS011;491;53.480;10.174;2023-09-12T05:13:09;49.07;;;42.07;;
1004;SDS011;491;53.480;10.174;2023-09-12T05:15:35;46.43;;;39.40;;
1004;SDS011;491;53.480;10.174;2023-09-12T05:18:01;46.00;;;40.80;;
1004;SDS011;491;53.480;10.174;2023-09-12T05:20:27;45.10;;;40.17;;
1004;SDS011;491;53.480;10.174;2023-09-12T05:22:53;46.30;;;37.97;;
1004;SDS011;491;53.480;10.174;2023-09-12T05:25:19;49.33;;;39.60;;
1004;SDS011;491;53.480;10.174;2023-09-12T05:27:45;43.47;;;38.53;;
1004;SDS011;491;53.480;10.174;2023-09-12T05:30:11;44.57;;;38.30;;
1004;SDS011;491;53.480;10.174;2023-09-12T05:32:37;45.47;;;38.00;;
1004;SDS011;491;53.480;10.174;2023-09-12T05:35:03;46.27;;;37.90;;
1004;SDS011;491;53.480;10.174;2023-09-12T05:37:29;40.60;;;35.63;;
1004;SDS011;491;53.480;10.174;2023-09-12T05:39:55;46.23;;;37.33;;
1004;SDS011;491;53.480;10.174;2023-09-12T05:42:21;45.47;;;37.13;;
1004;SDS011;491;53.480;10.174;2023-09-12T05:44:48;45.97;;;37.77;;
1004;SDS011;491;53.480;10.174;2023-09-12T05:47:14;48.73;;;38.67;;
1004;SDS011;491;53.480;10.174;2023-09-12T05:49:40;45.83;;;40.67;;
1004;SDS011;491;53.480;10.174;2023-09-12T05:52:06;40.20;;;35.30;;
1004;SDS011;491;53.480;10.174;2023-09-12T05:54:32;42.80;;;38.10;;
1004;SDS011;491;53.480;10.174;2023-09-12T05:56:58;45.30;;;40.30;;
1004;SDS011;491;53.480;10.174;2023-09-12T05:59:24;42.90;;;37.90;;
1004;SDS011;491;53.480;10.174;2023-09-12T06:01:50;45.93;;;38.63;;
1004;SDS011;491;53.480;10.174;2023-09-12T06:04:17;42.00;;;37.43;;
1004;SDS011;491;53.480;10.174;2023-09-12T06:06:43;47.50;;;39.13;;
1004;SDS011;491;53.480;10.174;2023-09-12T06:09:10;42.57;;;37.87;;
1004;SDS011;491;53.480;10.174;2023-09-12T06:11:36;44.67;;;39.30;;
1004;SDS011;491;53.480;10.174;2023-09-12T06:14:02;50.43;;;41.30;;
1004;SDS011;491;53.480;10.174;2023-09-12T06:16:28;42.40;;;37.93;;
1004;SDS011;491;53.480;10.174;2023-09-12T06:18:54;43.43;;;38.80;;
1004;SDS011;491;53.480;10.174;2023-09-12T06:21:20;45.57;;;37.60;;
1004;SDS011;491;53.480;10.174;2023-09-12T06:23:47;46.27;;;39.63;;
1004;SDS011;491;53.480;10.174;2023-09-12T06:26:13;45.67;;;39.77;;
1004;SDS011;491;53.480;10.174;2023-09-12T06:28:39;45.03;;;40.03;;
1004;SDS011;491;53.480;10.174;2023-09-12T06:31:07;45.13;;;38.90;;
1004;SDS011;491;53.480;10.174;2023-09-12T06:33:37;51.23;;;41.90;;
1004;SDS011;491;53.480;10.174;2023-09-12T06:36:03;54.17;;;44.10;;
1004;SDS011;491;53.480;10.174;2023-09-12T06:38:29;47.40;;;39.70;;
1004;SDS011;491;53.480;10.174;2023-09-12T06:40:55;46.50;;;39.33;;
1004;SDS011;491;53.480;10.174;2023-09-12T06:43:21;49.67;;;42.07;;
1004;SDS011;491;53.480;10.174;2023-09-12T06:45:47;43.40;;;38.70;;
1004;SDS011;491;53.480;10.174;2023-09-12T06:48:13;45.10;;;39.67;;
1004;SDS011;491;53.480;10.174;2023-09-12T06:50:39;46.47;;;39.10;;
1004;SDS011;491;53.480;10.174;2023-09-12T06:53:05;46.07;;;38.97;;
1004;SDS011;491;53.480;10.174;2023-09-12T06:55:32;45.77;;;37.90;;
1004;SDS011;491;53.480;10.174;2023-09-12T06:57:58;42.70;;;37.93;;
1004;SDS011;491;53.480;10.174;2023-09-12T07:00:23;44.40;;;39.87;;
1004;SDS011;491;53.480;10.174;2023-09-12T07:02:51;45.60;;;39.23;;
1004;SDS011;491;53.480;10.174;2023-09-12T07:05:17;44.23;;;39.47;;
1004;SDS011;491;53.480;10.174;2023-09-12T07:07:43;43.77;;;38.27;;
1004;SDS011;491;53.480;10.174;2023-09-12T07:10:09;44.23;;;38.77;;
1004;SDS011;491;53.480;10.174;2023-09-12T07:12:35;41.47;;;37.00;;
1004;SDS011;491;53.480;10.174;2023-09-12T07:15:01;46.37;;;38.60;;
1004;SDS011;491;53.480;10.174;2023-09-12T07:17:27;44.20;;;36.03;;
1004;SDS011;491;53.480;10.174;2023-09-12T07:19:53;43.90;;;38.00;;
1004;SDS011;491;53.480;10.174;2023-09-12T07:22:19;48.60;;;36.33;;
1004;SDS011;491;53.480;10.174;2023-09-12T07:24:45;41.80;;;37.47;;
1004;SDS011;491;53.480;10.174;2023-09-12T07:27:11;42.50;;;37.90;;
1004;SDS011;491;53.480;10.174;2023-09-12T07:29:37;41.90;;;36.20;;
1004;SDS011;491;53.480;10.174;2023-09-12T07:32:03;47.63;;;39.43;;
1004;SDS011;491;53.480;10.174;2023-09-12T07:34:29;45.70;;;38.03;;
1004;SDS011;491;53.480;10.174;2023-09-12T07:36:55;43.80;;;37.23;;
1004;SDS011;491;53.480;10.174;2023-09-12T07:39:21;45.17;;;37.20;;
1004;SDS011;491;53.480;10.174;2023-09-12T07:41:47;44.40;;;38.80;;
1004;SDS011;491;53.480;10.174;2023-09-12T07:44:13;49.77;;;38.70;;
1004;SDS011;491;53.480;10.174;2023-09-12T07:46:40;43.13;;;37.43;;
1004;SDS011;491;53.480;10.174;2023-09-12T07:49:06;47.23;;;40.20;;
1004;SDS011;491;53.480;10.174;2023-09-12T07:51:34;46.17;;;40.07;;
1004;SDS011;491;53.480;10.174;2023-09-12T07:54:00;45.97;;;38.83;;
1004;SDS011;491;53.480;10.174;2023-09-12T07:56:26;41.47;;;35.67;;
1004;SDS011;491;53.480;10.174;2023-09-12T07:58:52;45.50;;;39.03;;
1004;SDS011;491;53.480;10.174;2023-09-12T08:01:18;42.33;;;37.77;;
1004;SDS011;491;53.480;10.174;2023-09-12T08:03:44;41.80;;;37.30;;
1004;SDS011;491;53.480;10.174;2023-09-12T08:06:10;40.80;;;36.27;;
1004;SDS011;491;53.480;10.174;2023-09-12T08:08:36;42.87;;;36.20;;
1004;SDS011;491;53.480;10.174;2023-09-12T08:11:02;39.17;;;34.97;;
1004;SDS011;491;53.480;10.174;2023-09-12T08:13:28;36.90;;;31.43;;
1004;SDS011;491;53.480;10.174;2023-09-12T08:15:55;33.77;;;30.17;;
1004;SDS011;491;53.480;10.174;2023-09-12T08:18:21;36.97;;;32.30;;
1004;SDS011;491;53.480;10.174;2023-09-12T08:20:47;35.07;;;31.33;;
1004;SDS011;491;53.480;10.174;2023-09-12T08:23:13;37.37;;;33.07;;
1004;SDS011;491;53.480;10.174;2023-09-12T08:25:39;36.77;;;32.03;;
1004;SDS011;491;53.480;10.174;2023-09-12T08:28:08;34.30;;;30.40;;
1004;SDS011;491;53.480;10.174;2023-09-12T08:30:34;32.33;;;27.50;;
1004;SDS011;491;53.480;10.174;2023-09-12T08:33:00;33.10;;;28.30;;
1004;SDS011;491;53.480;10.174;2023-09-12T08:35:28;35.53;;;29.83;;
1004;SDS011;491;53.480;10.174;2023-09-12T08:37:54;31.00;;;27.43;;
1004;SDS011;491;53.480;10.174;2023-09-12T08:40:20;33.23;;;29.70;;
1004;SDS011;491;53.480;10.174;2023-09-12T08:42:48;35.40;;;30.90;;
1004;SDS011;491;53.480;10.174;2023-09-12T08:45:16;32.07;;;28.60;;
1004;SDS011;491;53.480;10.174;2023-09-12T08:47:49;34.77;;;30.00;;
1004;SDS011;491;53.480;10.174;2023-09-12T08:50:15;32.07;;;28.90;;
1004;SDS011;491;53.480;10.174;2023-09-12T08:52:42;32.40;;;29.00;;
1004;SDS011;491;53.480;10.174;2023-09-12T08:55:08;31.70;;;28.30;;
1004;SDS011;491;53.480;10.174;2023-09-12T08:57:35;32.23;;;28.83;;
1004;SDS011;491;53.480;10.174;2023-09-12T09:00:01;29.90;;;26.87;;
1004;SDS011;491;53.480;10.174;2023-09-12T09:02:32;30.37;;;27.33;;
1004;SDS011;491;53.480;10.174;2023-09-12T09:04:58;29.97;;;26.87;;
1004;SDS011;491;53.480;10.174;2023-09-12T09:07:24;27.73;;;24.77;;
1004;SDS011;491;53.480;10.174;2023-09-12T09:09:51;27.00;;;24.40;;
1004;SDS011;491;53.480;10.174;2023-09-12T09:12:18;30.90;;;27.80;;
1004;SDS011;491;53.480;10.174;2023-09-12T09:14:44;27.37;;;24.67;;
1004;SDS011;491;53.480;10.174;2023-09-12T09:17:10;27.47;;;24.70;;
1004;SDS011;491;53.480;10.174;2023-09-12T09:19:41;27.77;;;24.87;;
1004;SDS011;491;53.480;10.174;2023-09-12T09:22:07;27.60;;;25.03;;
1004;SDS011;491;53.480;10.174;2023-09-12T09:24:36;27.83;;;25.07;;
1004;SDS011;491;53.480;10.174;2023-09-12T09:27:02;27.77;;;25.07;;
1004;SDS011;491;53.480;10.174;2023-09-12T09:29:28;25.53;;;23.00;;
1004;SDS011;491;53.480;10.174;2023-09-12T09:31:57;26.43;;;23.90;;
1004;SDS011;491;53.480;10.174;2023-09-12T09:34:23;26.33;;;23.67;;
1004;SDS011;491;53.480;10.174;2023-09-12T09:36:50;28.80;;;25.87;;
1004;SDS011;491;53.480;10.174;2023-09-12T09:39:17;27.67;;;24.77;;
1004;SDS011;491;53.480;10.174;2023-09-12T09:41:46;28.17;;;25.13;;
1004;SDS011;491;53.480;10.174;2023-09-12T09:44:13;28.53;;;25.63;;
1004;SDS011;491;53.480;10.174;2023-09-12T09:46:39;27.20;;;24.40;;
1004;SDS011;491;53.480;10.174;2023-09-12T09:49:09;29.93;;;26.73;;
1004;SDS011;491;53.480;10.174;2023-09-12T09:51:41;29.10;;;26.17;;
1004;SDS011;491;53.480;10.174;2023-09-12T09:54:08;27.73;;;25.07;;
1004;SDS011;491;53.480;10.174;2023-09-12T09:56:44;29.23;;;26.40;;
1004;SDS011;491;53.480;10.174;2023-09-12T09:59:13;29.40;;;26.50;;
1004;SDS011;491;53.480;10.174;2023-09-12T10:01:40;28.93;;;25.83;;
1004;SDS011;491;53.480;10.174;2023-09-12T10:04:06;28.53;;;25.63;;
1004;SDS011;491;53.480;10.174;2023-09-12T10:06:32;27.50;;;24.60;;
1004;SDS011;491;53.480;10.174;2023-09-12T10:09:01;30.80;;;27.60;;
1004;SDS011;491;53.480;10.174;2023-09-12T10:11:31;29.97;;;26.83;;
1004;SDS011;491;53.480;10.174;2023-09-12T10:14:04;28.47;;;25.57;;
1004;SDS011;491;53.480;10.174;2023-09-12T10:16:31;27.70;;;24.73;;
1004;SDS011;491;53.480;10.174;2023-09-12T10:19:13;30.80;;;27.83;;
1004;SDS011;491;53.480;10.174;2023-09-12T10:21:46;29.13;;;26.10;;
1004;SDS011;491;53.480;10.174;2023-09-12T10:24:12;29.10;;;26.03;;
1004;SDS011;491;53.480;10.174;2023-09-12T10:26:40;30.07;;;27.07;;
1004;SDS011;491;53.480;10.174;2023-09-12T10:29:08;28.93;;;25.93;;
1004;SDS011;491;53.480;10.174;2023-09-12T10:31:35;29.90;;;26.90;;
1004;SDS011;491;53.480;10.174;2023-09-12T10:34:03;28.00;;;25.10;;
1004;SDS011;491;53.480;10.174;2023-09-12T10:36:31;27.83;;;25.10;;
1004;SDS011;491;53.480;10.174;2023-09-12T10:38:57;30.50;;;27.40;;
1004;SDS011;491;53.480;10.174;2023-09-12T10:41:27;31.10;;;27.90;;
1004;SDS011;491;53.480;10.174;2023-09-12T10:43:53;28.27;;;25.57;;
1004;SDS011;491;53.480;10.174;2023-09-12T10:46:20;30.77;;;27.60;;
1004;SDS011;491;53.480;10.174;2023-09-12T10:48:47;29.67;;;26.80;;
1004;SDS011;491;53.480;10.174;2023-09-12T10:51:13;28.87;;;25.90;;
1004;SDS011;491;53.480;10.174;2023-09-12T10:53:47;28.27;;;25.47;;
1004;SDS011;491;53.480;10.174;2023-09-12T10:56:15;26.53;;;23.90;;
1004;SDS011;491;53.480;10.174;2023-09-12T11:01:29;25.87;;;23.47;;
1004;SDS011;491;53.480;10.174;2023-09-12T11:03:55;25.73;;;23.27;;
1004;SDS011;491;53.480;10.174;2023-09-12T11:06:22;27.07;;;24.47;;
1004;SDS011;491;53.480;10.174;2023-09-12T11:11:33;23.80;;;21.60;;
1004;SDS011;491;53.480;10.174;2023-09-12T11:14:02;24.17;;;21.97;;
1004;SDS011;491;53.480;10.174;2023-09-12T11:16:28;24.10;;;21.60;;
1004;SDS011;491;53.480;10.174;2023-09-12T11:21:39;21.23;;;19.03;;
1004;SDS011;491;53.480;10.174;2023-09-12T11:24:06;20.07;;;18.00;;
1004;SDS011;491;53.480;10.174;2023-09-12T11:26:32;19.40;;;17.40;;
1004;SDS011;491;53.480;10.174;2023-09-12T11:29:09;19.17;;;17.27;;
1004;SDS011;491;53.480;10.174;2023-09-12T11:31:35;21.53;;;18.17;;
1004;SDS011;491;53.480;10.174;2023-09-12T11:34:08;18.00;;;16.30;;
1004;SDS011;491;53.480;10.174;2023-09-12T11:36:38;19.30;;;17.40;;
1004;SDS011;491;53.480;10.174;2023-09-12T11:39:21;17.20;;;15.60;;
1004;SDS011;491;53.480;10.174;2023-09-12T11:41:48;15.50;;;14.20;;
1004;SDS011;491;53.480;10.174;2023-09-12T11:44:14;17.60;;;15.43;;
1004;SDS011;491;53.480;10.174;2023-09-12T11:46:40;18.33;;;14.70;;
1004;SDS011;491;53.480;10.174;2023-09-12T11:49:08;16.97;;;15.30;;
1004;SDS011;491;53.480;10.174;2023-09-12T11:51:34;17.30;;;15.80;;
1004;SDS011;491;53.480;10.174;2023-09-12T11:53:59;15.90;;;14.40;;
1004;SDS011;491;53.480;10.174;2023-09-12T11:56:26;15.90;;;14.40;;
1004;SDS011;491;53.480;10.174;2023-09-12T11:58:54;15.10;;;13.60;;
1004;SDS011;491;53.480;10.174;2023-09-12T12:01:20;16.53;;;15.13;;
1004;SDS011;491;53.480;10.174;2023-09-12T12:03:46;15.63;;;14.03;;
1004;SDS011;491;53.480;10.174;2023-09-12T12:06:17;15.77;;;14.27;;
1004;SDS011;491;53.480;10.174;2023-09-12T12:08:44;15.77;;;14.30;;
1004;SDS011;491;53.480;10.174;2023-09-12T12:11:10;17.57;;;15.90;;
1004;SDS011;491;53.480;10.174;2023-09-12T12:13:36;15.13;;;13.60;;
1004;SDS011;491;53.480;10.174;2023-09-12T12:16:14;16.20;;;14.80;;
1004;SDS011;491;53.480;10.174;2023-09-12T12:18:40;17.23;;;13.40;;
1004;SDS011;491;53.480;10.174;2023-09-12T12:21:06;15.63;;;14.17;;
1004;SDS011;491;53.480;10.174;2023-09-12T12:23:32;14.00;;;12.70;;
1004;SDS011;491;53.480;10.174;2023-09-12T12:26:02;13.47;;;12.17;;
1004;SDS011;491;53.480;10.174;2023-09-12T12:28:28;11.73;;;10.70;;
1004;SDS011;491;53.480;10.174;2023-09-12T12:30:54;14.30;;;12.90;;
1004;SDS011;491;53.480;10.174;2023-09-12T12:33:20;13.87;;;12.37;;
1004;SDS011;491;53.480;10.174;2023-09-12T12:35:46;14.57;;;13.27;;
1004;SDS011;491;53.480;10.174;2023-09-12T12:38:12;13.40;;;12.03;;
1004;SDS011;491;53.480;10.174;2023-09-12T12:40:38;14.90;;;13.43;;
1004;SDS011;491;53.480;10.174;2023-09-12T12:43:05;13.23;;;12.00;;
1004;SDS011;491;53.480;10.174;2023-09-12T12:45:31;13.27;;;12.00;;
1004;SDS011;491;53.480;10.174;2023-09-12T12:47:57;12.37;;;11.10;;
1004;SDS011;491;53.480;10.174;2023-09-12T12:50:23;12.40;;;11.10;;
1004;SDS011;491;53.480;10.174;2023-09-12T12:52:49;12.13;;;11.10;;
1004;SDS011;491;53.480;10.174;2023-09-12T12:55:15;12.37;;;11.27;;
1004;SDS011;491;53.480;10.174;2023-09-12T12:57:42;13.27;;;11.87;;
1004;SDS011;491;53.480;10.174;2023-09-12T13:00:12;13.23;;;12.00;;
1004;SDS011;491;53.480;10.174;2023-09-12T13:02:38;13.20;;;12.10;;
1004;SDS011;491;53.480;10.174;2023-09-12T13:05:06;14.07;;;12.77;;
1004;SDS011;491;53.480;10.174;2023-09-12T13:07:33;13.00;;;11.80;;
1004;SDS011;491;53.480;10.174;2023-09-12T13:10:00;13.63;;;12.43;;
1004;SDS011;491;53.480;10.174;2023-09-12T13:12:26;12.27;;;11.07;;
1004;SDS011;491;53.480;10.174;2023-09-12T13:14:52;12.73;;;11.53;;
1004;SDS011;491;53.480;10.174;2023-09-12T13:17:18;12.60;;;11.53;;
1004;SDS011;491;53.480;10.174;2023-09-12T13:19:44;13.33;;;12.13;;
1004;SDS011;491;53.480;10.174;2023-09-12T13:22:10;13.33;;;12.07;;
1004;SDS011;491;53.480;10.174;2023-09-12T13:24:36;13.60;;;12.30;;
1004;SDS011;491;53.480;10.174;2023-09-12T13:27:02;11.87;;;10.80;;
1004;SDS011;491;53.480;10.174;2023-09-12T13:29:28;14.40;;;13.00;;
1004;SDS011;491;53.480;10.174;2023-09-12T13:31:54;12.27;;;11.00;;
1004;SDS011;491;53.480;10.174;2023-09-12T13:34:20;11.87;;;10.83;;
1004;SDS011;491;53.480;10.174;2023-09-12T13:36:46;13.00;;;11.10;;
1004;SDS011;491;53.480;10.174;2023-09-12T13:39:12;12.03;;;10.90;;
1004;SDS011;491;53.480;10.174;2023-09-12T13:41:38;10.83;;;9.93;;
1004;SDS011;491;53.480;10.174;2023-09-12T13:44:05;11.07;;;10.00;;
1004;SDS011;491;53.480;10.174;2023-09-12T13:46:31;9.93;;;9.13;;
1004;SDS011;491;53.480;10.174;2023-09-12T13:48:57;10.63;;;9.60;;
1004;SDS011;491;53.480;10.174;2023-09-12T13:51:28;10.20;;;9.30;;
1004;SDS011;491;53.480;10.174;2023-09-12T13:53:54;10.87;;;9.87;;
1004;SDS011;491;53.480;10.174;2023-09-12T13:56:20;11.20;;;10.10;;
1004;SDS011;491;53.480;10.174;2023-09-12T13:58:45;10.60;;;9.60;;
1004;SDS011;491;53.480;10.174;2023-09-12T14:01:11;11.73;;;10.63;;
1004;SDS011;491;53.480;10.174;2023-09-12T14:03:37;10.77;;;9.70;;
1004;SDS011;491;53.480;10.174;2023-09-12T14:06:03;11.27;;;10.10;;
1004;SDS011;491;53.480;10.174;2023-09-12T14:08:29;12.13;;;10.93;;
1004;SDS011;491;53.480;10.174;2023-09-12T14:10:55;11.60;;;10.50;;
1004;SDS011;491;53.480;10.174;2023-09-12T14:13:21;13.20;;;12.07;;
1004;SDS011;491;53.480;10.174;2023-09-12T14:15:47;11.40;;;10.30;;
1004;SDS011;491;53.480;10.174;2023-09-12T14:18:14;11.67;;;10.60;;
1004;SDS011;491;53.480;10.174;2023-09-12T14:20:43;12.33;;;11.23;;
1004;SDS011;491;53.480;10.174;2023-09-12T14:23:11;10.90;;;9.90;;
1004;SDS011;491;53.480;10.174;2023-09-12T14:25:37;11.10;;;10.10;;
1004;SDS011;491;53.480;10.174;2023-09-12T14:28:03;12.03;;;11.13;;
1004;SDS011;491;53.480;10.174;2023-09-12T14:30:30;10.97;;;9.90;;
1004;SDS011;491;53.480;10.174;2023-09-12T14:33:00;11.23;;;10.13;;
1004;SDS011;491;53.480;10.174;2023-09-12T14:35:27;10.97;;;10.13;;
1004;SDS011;491;53.480;10.174;2023-09-12T14:37:52;9.87;;;9.03;;
1004;SDS011;491;53.480;10.174;2023-09-12T14:40:18;13.00;;;9.97;;
1004;SDS011;491;53.480;10.174;2023-09-12T14:42:44;9.70;;;8.70;;
1004;SDS011;491;53.480;10.174;2023-09-12T14:45:10;10.07;;;9.20;;
1004;SDS011;491;53.480;10.174;2023-09-12T14:47:36;9.40;;;8.43;;
1004;SDS011;491;53.480;10.174;2023-09-12T14:50:02;9.57;;;8.77;;
1004;SDS011;491;53.480;10.174;2023-09-12T14:52:29;9.53;;;8.63;;